Data for 08/11/2015

Time Sea-Level Adjusted Pressure Absolute Pressure Temperature Relative Humidity Dew Point   
(mb) (inHg) (mb) (inHg) (C) (F) (%) (C) (F)
00:05 1022 30.18 851 25.13 16.5 61.7 47 5.4 41.7
00:10 1022 30.18 851 25.13 17.3 63.2 43 4.8 40.6
00:15 1022 30.18 851 25.13 17.5 63.5 44 5.3 41.5
00:20 1022 30.18 851 25.13 17.2 62.9 46 5.7 42.2
00:25 1022 30.18 851 25.13 17.2 63 45 5.4 41.8
00:30 1022 30.18 851 25.13 17 62.6 47 5.7 42.2
00:35 1022 30.18 851 25.13 16.5 61.7 49 5.8 42.4
00:40 1022 30.18 851 25.13 16 60.9 50 5.7 42.2
00:45 1022 30.18 851 25.13 16 60.8 49 5.3 41.5
00:50 1022 30.18 851 25.13 16.3 61.4 48 5.4 41.8
00:55 1022 30.18 851 25.13 16.3 61.4 49 5.7 42.3
01:00 1022 30.18 851 25.13 16.4 61.5 48 5.4 41.6
01:05 1022 30.18 851 25.13 16.5 61.6 48 5.6 42.1
01:10 1022 30.18 851 25.13 16.5 61.7 47 5.1 41.2
01:15 1022 30.18 851 25.13 16.7 62.1 46 5.1 41.1
01:20 1022 30.18 851 25.13 16.8 62.2 48 5.7 42.3
01:25 1022 30.18 851 25.13 16.5 61.6 48 5.6 42.1
01:30 1022 30.18 851 25.13 16.1 61.1 59 8.1 46.6
01:35 1022 30.18 851 25.13 15.9 60.5 51 5.7 42.3
01:40 1022 30.18 851 25.13 16.1 60.9 50 5.9 42.6
01:45 1022 30.18 851 25.13 15.7 60.2 53 6.1 42.9
01:50 1022 30.18 851 25.13 15.3 59.6 53 5.8 42.5
01:55 1022 30.18 851 25.13 15.2 59.4 53 5.8 42.5
02:00 1022 30.18 851 25.13 15.1 59.2 54 6 42.8
02:05 1022 30.18 851 25.13 14.9 58.8 58 6.8 44.3
02:10 1022 30.18 851 25.13 14.8 58.7 58 6.7 44.1
02:15 1022 30.18 851 25.13 14.9 58.8 53 5.6 42.1
02:20 1022 30.18 851 25.13 14.9 58.8 54 5.7 42.2
02:25 1022 30.18 851 25.13 14.8 58.6 54 5.7 42.3
02:30 1022 30.18 851 25.13 14.8 58.6 53 5.5 41.9
02:35 1022 30.18 851 25.13 14.9 58.8 54 5.6 42.1
02:40 1022 30.18 851 25.13 15 58.9 51 4.9 40.9
02:45 1022 30.18 851 25.13 15.4 59.7 54 6.1 43
02:50 1022 30.18 851 25.13 15.2 59.3 53 5.7 42.2
02:55 1022 30.18 851 25.13 15.1 59.1 52 5.4 41.8
03:00 1022 30.18 851 25.13 15.1 59.1 52 5.3 41.6
03:05 1022 30.18 851 25.13 15 59 52 5.3 41.6
03:10 1022 30.18 851 25.13 14.9 58.8 54 5.6 42.1
03:15 1022 30.18 851 25.13 14.4 58 57 6.1 42.9
03:20 1022 30.18 851 25.13 13.8 56.8 58 5.8 42.5
03:25 1022 30.18 851 25.13 13.8 56.9 55 5.1 41.2
03:30 1022 30.18 851 25.13 14.4 57.9 52 4.9 40.8
03:35 1022 30.18 851 25.13 14.8 58.7 51 4.9 40.9
03:40 1022 30.18 851 25.13 15 58.9 54 5.7 42.3
03:45 1022 30.18 851 25.13 14.2 57.5 58 6 42.8
03:50 1022 30.18 851 25.13 14 57.1 56 5.4 41.7
03:55 1022 30.18 851 25.13 14.1 57.5 56 5.7 42.2
04:00 1022 30.18 851 25.13 14.1 57.5 54 5.1 41.2
04:05 1022 30.18 852 25.16 14.4 57.9 55 5.6 42
04:10 1022 30.18 852 25.16 14.4 58 54 5.3 41.6
04:15 1022 30.18 852 25.16 14.3 57.8 57 5.9 42.5
04:20 1022 30.18 852 25.16 13.8 56.8 56 5.3 41.6
04:25 1022 30.18 852 25.16 13.9 57 55 5.2 41.3
04:30 1023 30.21 852 25.16 14.2 57.5 55 5.4 41.7
04:35 1022 30.18 852 25.16 14.2 57.5 54 5.2 41.4
04:40 1022 30.18 852 25.16 14.2 57.6 56 5.6 42.1
04:45 1023 30.21 852 25.16 13.8 56.8 58 5.8 42.5
04:50 1023 30.21 852 25.16 13.4 56 58 5.3 41.5
04:55 1023 30.21 852 25.16 13.7 56.6 55 4.9 40.9
05:00 1023 30.21 852 25.16 13.9 57 57 5.6 42.1
05:05 1023 30.21 852 25.16 13.6 56.4 58 5.6 42.1
05:10 1023 30.21 852 25.16 12.9 55.2 61 5.6 42.1
05:15 1023 30.21 852 25.16 12.9 55.2 58 5 41
05:20 1023 30.21 852 25.16 13.2 55.8 58 5.2 41.3
05:25 1023 30.21 852 25.16 13.8 56.8 54 4.8 40.6
05:30 1023 30.21 852 25.16 14.5 58.2 54 5.4 41.7
05:35 1023 30.21 852 25.16 13.7 56.7 59 5.9 42.6
05:40 1023 30.21 852 25.16 13.2 55.7 56 4.7 40.5
05:45 1023 30.21 852 25.16 14 57.2 55 5.3 41.5
05:50 1023 30.21 852 25.16 13.7 56.7 56 5.1 41.1
05:55 1023 30.21 852 25.16 14.1 57.3 54 5 41
06:00 1023 30.21 852 25.16 14.1 57.5 55 5.2 41.4
06:05 1023 30.21 852 25.16 14.3 57.7 53 5 40.9
06:10 1023 30.21 852 25.16 14.5 58.1 53 5.1 41.2
06:15 1023 30.21 852 25.16 14.8 58.6 52 5.1 41.2
06:20 1023 30.21 852 25.16 14.7 58.5 53 5.2 41.4
06:25 1023 30.21 852 25.16 14.9 58.8 51 4.9 40.8
06:30 1023 30.21 852 25.16 15.2 59.3 51 5.3 41.5
06:35 1023 30.21 853 25.19 15.2 59.3 51 5.1 41.2
06:40 1023 30.21 853 25.19 15.4 59.8 51 5.3 41.6
06:45 1023 30.21 853 25.19 15.2 59.4 53 5.7 42.2
06:50 1023 30.21 853 25.19 15.1 59.2 53 5.6 42.1
06:55 1024 30.24 853 25.19 15.1 59.2 52 5.4 41.7
07:00 1024 30.24 853 25.19 15.4 59.7 51 5.3 41.6
07:05 1024 30.24 853 25.19 15.9 60.6 48 4.9 40.8
07:10 1024 30.24 853 25.19 16.2 61.1 49 5.4 41.7
07:15 1024 30.24 853 25.19 16.3 61.4 50 6 42.8
07:20 1024 30.24 853 25.19 16.4 61.4 50 5.9 42.7
07:25 1024 30.24 853 25.19 16.5 61.7 50 6.2 43.2
07:30 1024 30.24 853 25.19 16.7 62 52 6.8 44.2
07:35 1024 30.24 853 25.19 17.2 63 50 6.8 44.3
07:40 1024 30.24 853 25.19 17.3 63.1 48 6.4 43.5
07:45 1024 30.24 853 25.19 17.6 63.7 48 6.5 43.7
07:50 1024 30.24 853 25.19 17.9 64.1 48 6.7 44.1
07:55 1024 30.24 853 25.19 18.6 65.5 47 7.1 44.8
08:00 1024 30.24 853 25.19 19.2 66.6 44 7 44.5
08:05 1024 30.24 853 25.19 19.4 67 44 7 44.5
08:10 1024 30.24 853 25.19 19.7 67.4 41 6.4 43.5
08:15 1024 30.24 853 25.19 20.3 68.5 40 6.5 43.7
08:20 1024 30.24 853 25.19 20.5 68.8 38 6 42.8
08:25 1024 30.24 853 25.19 20.5 68.9 40 6.6 43.9
08:30 1024 30.24 853 25.19 20.3 68.6 39 6.2 43.2
08:35 1024 30.24 853 25.19 20.7 69.3 38 6 42.8
08:40 1024 30.24 853 25.19 20.8 69.4 38 6.1 43
08:45 1024 30.24 853 25.19 20.9 69.6 37 5.9 42.7
08:50 1024 30.24 853 25.19 21.8 71.2 36 6.2 43.1
08:55 1024 30.24 853 25.19 22.3 72.2 33 5.6 42.1
09:00 1024 30.24 853 25.19 22.6 72.6 33 5.8 42.5
09:05 1024 30.24 853 25.19 22.4 72.3 34 6 42.7
09:10 1024 30.24 853 25.19 22.4 72.2 34 5.9 42.7
09:15 1024 30.24 853 25.19 21.6 70.9 34 5.2 41.4
09:20 1024 30.24 853 25.19 21.9 71.3 33 5.2 41.4
09:25 1024 30.24 853 25.19 22.1 71.8 33 5.3 41.6
09:30 1024 30.24 853 25.19 22.6 72.7 31 4.9 40.8
09:35 1024 30.24 853 25.19 22.7 72.8 32 5.5 41.9
09:40 1024 30.24 853 25.19 22.7 72.8 33 5.6 42.1
09:45 1024 30.24 853 25.19 23.2 73.7 33 6 42.8
09:50 1024 30.24 853 25.19 23.4 74.1 31 5.7 42.3
09:55 1023 30.21 853 25.19 23.6 74.6 31 5.8 42.4
10:00 1023 30.21 853 25.19 23.6 74.4 32 6 42.9
10:05 1023 30.21 853 25.19 23.6 74.5 31 5.9 42.6
10:10 1023 30.21 852 25.16 23.8 74.9 30 5.6 42.1
10:15 1023 30.21 852 25.16 24.5 76.1 29 5.7 42.3
10:20 1023 30.21 852 25.16 24.7 76.4 29 5.9 42.6
10:25 1023 30.21 852 25.16 25.5 77.8 28 5.7 42.2
10:30 1023 30.21 852 25.16 25.5 77.9 27 5.3 41.6
10:35 1023 30.21 852 25.16 26.3 79.3 26 5.6 42
10:40 1023 30.21 852 25.16 27.4 81.2 27 7.1 44.8
10:45 1023 30.21 852 25.16 27.1 80.8 25 5.8 42.4
10:50 1023 30.21 852 25.16 27.4 81.2 25 5.8 42.5
10:55 1023 30.21 852 25.16 27 80.5 26 6.3 43.3
11:00 1023 30.21 852 25.16 26.5 79.7 26 5.5 41.9
11:05 1023 30.21 852 25.16 27.1 80.8 25 5.7 42.2
11:10 1023 30.21 852 25.16 27.5 81.4 25 5.7 42.3
11:15 1023 30.21 852 25.16 28 82.4 25 6.3 43.3
11:20 1023 30.21 852 25.16 28 82.5 24 6 42.7
11:25 1023 30.21 852 25.16 27.9 82.2 22 4.4 39.9
11:30 1023 30.21 852 25.16 27.4 81.3 24 5.2 41.4
11:35 1023 30.21 852 25.16 27.8 82 24 5.6 42.1
11:40 1023 30.21 852 25.16 28.1 82.5 22 4.8 40.6
11:45 1023 30.21 852 25.16 29.4 84.8 20 4.6 40.3
11:50 1023 30.21 852 25.16 29.7 85.5 20 5 41
11:55 1023 30.21 852 25.16 29.4 84.9 20 4.3 39.8
12:00 1023 30.21 852 25.16 28.7 83.6 21 4.6 40.3
12:05 1022 30.18 852 25.16 29.6 85.3 21 5.1 41.2
12:10 1022 30.18 852 25.16 29.9 85.9 22 6.2 43.2
12:15 1022 30.18 852 25.16 30 85.9 20 5.2 41.4
12:20 1022 30.18 852 25.16 30.3 86.6 19 4.7 40.5
12:25 1022 30.18 851 25.13 29.6 85.3 19 3.7 38.6
12:30 1022 30.18 851 25.13 30 86.1 17 2.3 36.2
12:35 1022 30.18 851 25.13 30.7 87.3 17 3.1 37.6
12:40 1022 30.18 851 25.13 30.3 86.6 17 2.6 36.7
12:45 1022 30.18 851 25.13 30.7 87.2 17 3.4 38.1
12:50 1022 30.18 851 25.13 30.2 86.4 18 3.4 38.1
12:55 1022 30.18 851 25.13 30.3 86.5 17 3 37.4
13:00 1022 30.18 851 25.13 31.4 88.5 17 4 39.2
13:05 1022 30.18 851 25.13 31.5 88.7 17 3.9 39.1
13:10 1022 30.18 851 25.13 30.8 87.5 16 2.8 37.1
13:15 1022 30.18 851 25.13 30.4 86.7 16 2.1 35.8
13:20 1022 30.18 851 25.13 30.3 86.5 17 3.1 37.5
13:25 1022 30.18 851 25.13 30.3 86.5 17 3.1 37.6
13:30 1022 30.18 851 25.13 31.6 88.8 15 2 35.6
13:35 1022 30.18 851 25.13 32.5 90.5 14 2.3 36.1
13:40 1022 30.18 851 25.13 32 89.6 15 2.5 36.6
13:45 1022 30.18 851 25.13 31.2 88.2 15 1.7 35
13:50 1022 30.18 851 25.13 30.6 87.1 16 2.2 36
13:55 1022 30.18 851 25.13 30.7 87.3 14 0.9 33.6
14:00 1021 30.15 851 25.13 31.7 89 15 2 35.6
14:05 1021 30.15 851 25.13 32 89.6 15 2.1 35.8
14:10 1021 30.15 851 25.13 31.6 88.9 16 2.8 37.1
14:15 1021 30.15 851 25.13 32.3 90.1 14 1.9 35.4
14:20 1021 30.15 851 25.13 32.7 90.8 14 2.3 36.2
14:25 1021 30.15 850 25.1 32.8 91.1 14 2.1 35.7
14:30 1021 30.15 850 25.1 33 91.3 13 1.8 35.2
14:35 1021 30.15 850 25.1 32.2 89.9 15 2.4 36.3
14:40 1021 30.15 850 25.1 32.3 90.1 13 0.4 32.8
14:45 1021 30.15 850 25.1 32.6 90.6 13 1 33.7
14:50 1021 30.15 850 25.1 32.6 90.8 13 1.6 34.8
14:55 1021 30.15 850 25.1 33.2 91.8 13 1.6 34.9
15:00 1021 30.15 850 25.1 32 89.6 14 1.6 34.8
15:05 1021 30.15 850 25.1 31.9 89.3 14 1.7 35.1
15:10 1021 30.15 850 25.1 32.2 89.9 14 1.7 35.1
15:15 1021 30.15 850 25.1 32.2 90 14 1.4 34.6
15:20 1021 30.15 850 25.1 32.4 90.3 14 1.8 35.3
15:25 1021 30.15 850 25.1 31.9 89.5 14 1.9 35.4
15:30 1021 30.15 850 25.1 31.7 89.1 15 2.1 35.8
15:35 1021 30.15 850 25.1 32.3 90.1 14 2.1 35.7
15:40 1021 30.15 850 25.1 33.1 91.5 13 1.9 35.5
15:45 1021 30.15 850 25.1 33.1 91.5 13 1.7 35.1
15:50 1021 30.15 850 25.1 33.3 91.9 14 2.3 36.2
15:55 1021 30.15 850 25.1 33.4 92.1 13 1.7 35
16:00 1021 30.15 850 25.1 33.3 91.9 13 2 35.6
16:05 1021 30.15 850 25.1 32.4 90.3 14 1.9 35.3
16:10 1021 30.15 850 25.1 32.2 89.9 14 2 35.6
16:15 1021 30.15 850 25.1 32.3 90.1 14 1.6 34.9
16:20 1021 30.15 850 25.1 32.7 90.8 14 1.8 35.3
16:25 1021 30.15 850 25.1 33.3 91.9 14 2.2 35.9
16:30 1020 30.12 850 25.1 33 91.3 14 2.1 35.7
16:35 1020 30.12 850 25.1 31.7 89 14 1.6 34.8
16:40 1020 30.12 850 25.1 31.9 89.4 14 1.5 34.7
16:45 1020 30.12 849 25.07 32 89.6 14 1.5 34.8
16:50 1020 30.12 849 25.07 32 89.5 15 2.1 35.8
16:55 1020 30.12 849 25.07 32.2 90 14 1.5 34.7
17:00 1020 30.12 849 25.07 31.5 88.8 14 1.7 35
17:05 1020 30.12 849 25.07 31.8 89.2 15 2.3 36.1
17:10 1020 30.12 849 25.07 31.9 89.5 14 1.9 35.4
17:15 1020 30.12 849 25.07 31.7 89 15 2 35.5
17:20 1020 30.12 849 25.07 31.8 89.3 14 1.1 33.9
17:25 1020 30.12 849 25.07 32.1 89.8 14 1.7 35.1
17:30 1020 30.12 849 25.07 31.8 89.2 15 2.2 35.9
17:35 1020 30.12 849 25.07 31.3 88.3 15 2.1 35.8
17:40 1020 30.12 849 25.07 31.2 88.1 15 1.4 34.6
17:45 1020 30.12 849 25.07 31.4 88.5 15 2.3 36.2
17:50 1020 30.12 849 25.07 31.4 88.6 15 2.2 36
17:55 1020 30.12 849 25.07 31.2 88.1 16 3.1 37.6
18:00 1020 30.12 849 25.07 31 87.9 17 3.3 37.9
18:05 1020 30.12 849 25.07 30.8 87.5 16 2.1 35.8
18:10 1020 30.12 849 25.07 30.8 87.4 17 2.9 37.3
18:15 1020 30.12 849 25.07 30.6 87.1 15 1.7 35
18:20 1020 30.12 849 25.07 30.5 86.9 16 2 35.6
18:25 1020 30.12 849 25.07 30.5 86.8 17 3.1 37.5
18:30 1020 30.12 849 25.07 30.4 86.6 15 1.4 34.5
18:35 1020 30.12 849 25.07 30.2 86.4 15 1.4 34.5
18:40 1020 30.12 849 25.07 30 86.1 15 1.1 34
18:45 1020 30.12 849 25.07 29.9 85.8 16 1.5 34.7
18:50 1020 30.12 849 25.07 29.8 85.7 15 1.1 34
18:55 1020 30.12 849 25.07 29.8 85.7 16 1.2 34.2
19:00 1020 30.12 849 25.07 29.6 85.3 16 1.5 34.8
19:05 1020 30.12 849 25.07 29.4 85 17 1.9 35.5
19:10 1020 30.12 849 25.07 29.2 84.5 18 2.4 36.3
19:15 1020 30.12 849 25.07 29.1 84.3 18 2.4 36.3
19:20 1020 30.12 849 25.07 28.8 83.8 20 3.9 39
19:25 1020 30.12 849 25.07 28.5 83.3 21 4.2 39.5
19:30 1020 30.12 849 25.07 28.2 82.7 23 5.1 41.1
19:35 1020 30.12 849 25.07 27.5 81.5 23 5 41
19:40 1020 30.12 849 25.07 26.7 80.1 26 5.8 42.5
19:45 1020 30.12 849 25.07 26.3 79.3 27 6.2 43.1
19:50 1020 30.12 849 25.07 26 78.7 27 5.6 42
19:55 1020 30.12 849 25.07 25.9 78.6 27 5.7 42.3
20:00 1020 30.12 849 25.07 25.6 78.2 27 5.7 42.3
20:05 1020 30.12 850 25.1 25.4 77.6 30 6.6 43.9
20:10 1020 30.12 850 25.1 24.9 76.9 31 7 44.5
20:15 1020 30.12 850 25.1 24.4 76 32 7 44.6
20:20 1020 30.12 850 25.1 24.3 75.7 31 6.3 43.4
20:25 1021 30.15 850 25.1 24.2 75.5 33 6.9 44.5
20:30 1021 30.15 850 25.1 23.7 74.6 34 7.1 44.7
20:35 1021 30.15 850 25.1 23.4 74.1 34 6.7 44
20:40 1021 30.15 850 25.1 23.4 74.1 34 6.9 44.5
20:45 1021 30.15 850 25.1 23.1 73.6 35 7 44.6
20:50 1021 30.15 850 25.1 22.7 72.9 34 6.4 43.6
20:55 1021 30.15 850 25.1 22.7 72.9 34 6.1 42.9
21:00 1021 30.15 850 25.1 22.9 73.2 33 6 42.8
21:05 1021 30.15 850 25.1 22.9 73.2 34 6.5 43.7
21:10 1021 30.15 850 25.1 22.7 72.8 32 5.5 42
21:15 1021 30.15 850 25.1 22.7 72.8 35 6.7 44.1
21:20 1021 30.15 850 25.1 22.5 72.5 38 7.7 45.9
21:25 1021 30.15 850 25.1 22.2 71.9 35 6.4 43.5
21:30 1021 30.15 850 25.1 22.2 71.9 34 5.8 42.4
21:35 1021 30.15 850 25.1 22.3 72.1 33 5.5 42
21:40 1021 30.15 850 25.1 22.3 72.2 37 7.2 45
21:45 1021 30.15 850 25.1 22.2 72 33 5.4 41.7
21:50 1021 30.15 850 25.1 22.1 71.8 33 5.4 41.8
21:55 1021 30.15 850 25.1 22.1 71.8 33 5.3 41.5
22:00 1021 30.15 850 25.1 22 71.6 34 5.6 42.1
22:05 1021 30.15 850 25.1 21.8 71.2 34 5.3 41.5
22:10 1021 30.15 850 25.1 21.8 71.2 35 5.7 42.2
22:15 1021 30.15 850 25.1 21.7 71.1 34 5.5 41.8
22:20 1021 30.15 850 25.1 21.7 71.1 35 5.7 42.2
22:25 1021 30.15 850 25.1 21.5 70.8 35 5.7 42.3
22:30 1021 30.15 850 25.1 21.4 70.5 36 6 42.7
22:35 1021 30.15 850 25.1 21.4 70.6 35 5.5 41.9
22:40 1021 30.15 850 25.1 21.5 70.6 35 5.5 41.9
22:45 1021 30.15 850 25.1 21.4 70.5 36 5.8 42.4
22:50 1021 30.15 850 25.1 21.3 70.3 36 5.6 42.1
22:55 1021 30.15 850 25.1 21.4 70.5 35 5.5 41.9
23:00 1021 30.15 850 25.1 21.6 70.9 34 5.2 41.4
23:05 1021 30.15 850 25.1 21.7 71 34 5.3 41.6
23:10 1021 30.15 850 25.1 21.5 70.7 36 5.8 42.5
23:15 1021 30.15 850 25.1 21.5 70.6 34 5.2 41.3
23:20 1021 30.15 850 25.1 21.6 70.9 34 5.5 41.9
23:25 1021 30.15 850 25.1 21.4 70.4 36 5.8 42.4
23:30 1021 30.15 850 25.1 21.3 70.3 36 5.6 42.1
23:35 1021 30.15 850 25.1 21.6 70.9 33 5 40.9
23:40 1021 30.15 850 25.1 22 71.5 34 5.7 42.3
23:45 1021 30.15 850 25.1 21.5 70.8 36 6.1 43
23:50 1021 30.15 850 25.1 21.3 70.3 36 5.7 42.2
23:55 1021 30.15 850 25.1 21.3 70.3 37 6.2 43.1
24:00 1021 30.15 850 25.1 21.4 70.4 36 5.9 42.6